sensor_id;sensor_type;location;lat;lon;timestamp;temperature;humidity
9762;DHT22;4920;49.594;11.022;2022-12-10T00:01:48;-1.40;99.90
9762;DHT22;4920;49.594;11.022;2022-12-10T00:04:17;-1.40;99.90
9762;DHT22;4920;49.594;11.022;2022-12-10T00:06:47;-1.40;99.90
9762;DHT22;4920;49.594;11.022;2022-12-10T00:09:18;-1.30;99.90
9762;DHT22;4920;49.594;11.022;2022-12-10T00:11:49;-1.40;99.90
9762;DHT22;4920;49.594;11.022;2022-12-10T00:14:18;-1.30;99.90
9762;DHT22;4920;49.594;11.022;2022-12-10T00:16:47;-1.20;99.90
9762;DHT22;4920;49.594;11.022;2022-12-10T00:19:15;-1.20;99.90
9762;DHT22;4920;49.594;11.022;2022-12-10T00:21:44;-1.20;99.90
9762;DHT22;4920;49.594;11.022;2022-12-10T00:24:13;-1.10;99.90
9762;DHT22;4920;49.594;11.022;2022-12-10T00:26:42;-1.10;99.90
9762;DHT22;4920;49.594;11.022;2022-12-10T00:29:14;-1.10;99.90
9762;DHT22;4920;49.594;11.022;2022-12-10T00:31:43;-1.00;99.90
9762;DHT22;4920;49.594;11.022;2022-12-10T00:34:13;-1.00;99.90
9762;DHT22;4920;49.594;11.022;2022-12-10T00:36:44;-0.90;99.90
9762;DHT22;4920;49.594;11.022;2022-12-10T00:39:15;-0.90;99.90
9762;DHT22;4920;49.594;11.022;2022-12-10T00:41:45;-0.80;99.90
9762;DHT22;4920;49.594;11.022;2022-12-10T00:44:16;-0.90;99.90
9762;DHT22;4920;49.594;11.022;2022-12-10T00:46:45;-0.90;99.90
9762;DHT22;4920;49.594;11.022;2022-12-10T00:49:14;-0.90;99.90
9762;DHT22;4920;49.594;11.022;2022-12-10T00:51:43;-0.90;99.90
9762;DHT22;4920;49.594;11.022;2022-12-10T00:54:12;-0.90;99.90
9762;DHT22;4920;49.594;11.022;2022-12-10T00:56:41;-0.80;99.90
9762;DHT22;4920;49.594;11.022;2022-12-10T00:59:10;-0.90;99.90
9762;DHT22;4920;49.594;11.022;2022-12-10T01:01:42;-0.90;99.90
9762;DHT22;4920;49.594;11.022;2022-12-10T01:04:15;-0.90;99.90
9762;DHT22;4920;49.594;11.022;2022-12-10T01:06:47;-0.90;99.90
9762;DHT22;4920;49.594;11.022;2022-12-10T01:09:17;-0.90;99.90
9762;DHT22;4920;49.594;11.022;2022-12-10T01:11:48;-0.90;99.90
9762;DHT22;4920;49.594;11.022;2022-12-10T01:14:20;-0.90;99.90
9762;DHT22;4920;49.594;11.022;2022-12-10T01:16:53;-0.90;99.90
9762;DHT22;4920;49.594;11.022;2022-12-10T01:19:23;-0.90;99.90
9762;DHT22;4920;49.594;11.022;2022-12-10T01:21:52;-1.00;99.90
9762;DHT22;4920;49.594;11.022;2022-12-10T01:24:22;-1.00;99.90
9762;DHT22;4920;49.594;11.022;2022-12-10T01:26:51;-1.00;99.90
9762;DHT22;4920;49.594;11.022;2022-12-10T01:29:20;-1.00;99.90
9762;DHT22;4920;49.594;11.022;2022-12-10T01:31:52;-1.00;99.90
9762;DHT22;4920;49.594;11.022;2022-12-10T01:34:21;-1.20;99.90
9762;DHT22;4920;49.594;11.022;2022-12-10T01:36:51;-1.30;99.90
9762;DHT22;4920;49.594;11.022;2022-12-10T01:39:21;-1.40;99.90
9762;DHT22;4920;49.594;11.022;2022-12-10T01:41:52;-1.50;99.90
9762;DHT22;4920;49.594;11.022;2022-12-10T01:45:04;-1.60;99.90
9762;DHT22;4920;49.594;11.022;2022-12-10T01:47:34;-1.70;99.90
9762;DHT22;4920;49.594;11.022;2022-12-10T01:50:05;-1.80;99.90
9762;DHT22;4920;49.594;11.022;2022-12-10T01:52:37;-1.90;99.90
9762;DHT22;4920;49.594;11.022;2022-12-10T01:55:41;-2.00;99.90
9762;DHT22;4920;49.594;11.022;2022-12-10T01:58:13;-2.00;99.90
9762;DHT22;4920;49.594;11.022;2022-12-10T02:01:02;-2.10;99.90
9762;DHT22;4920;49.594;11.022;2022-12-10T02:03:43;-2.20;99.90
9762;DHT22;4920;49.594;11.022;2022-12-10T02:06:37;-2.20;99.90
9762;DHT22;4920;49.594;11.022;2022-12-10T02:09:12;-2.30;99.90
9762;DHT22;4920;49.594;11.022;2022-12-10T02:11:51;-2.30;99.90
9762;DHT22;4920;49.594;11.022;2022-12-10T02:14:27;-2.30;99.90
9762;DHT22;4920;49.594;11.022;2022-12-10T02:16:59;-2.30;99.90
9762;DHT22;4920;49.594;11.022;2022-12-10T02:19:46;-2.20;99.90
9762;DHT22;4920;49.594;11.022;2022-12-10T02:22:22;-2.20;99.90
9762;DHT22;4920;49.594;11.022;2022-12-10T02:24:54;-2.10;99.90
9762;DHT22;4920;49.594;11.022;2022-12-10T02:27:28;-2.00;99.90
9762;DHT22;4920;49.594;11.022;2022-12-10T02:30:00;-2.00;99.90
9762;DHT22;4920;49.594;11.022;2022-12-10T02:32:33;-1.90;99.90
9762;DHT22;4920;49.594;11.022;2022-12-10T02:35:09;-1.90;99.90
9762;DHT22;4920;49.594;11.022;2022-12-10T02:37:42;-1.80;99.90
9762;DHT22;4920;49.594;11.022;2022-12-10T02:40:19;-1.80;99.90
9762;DHT22;4920;49.594;11.022;2022-12-10T02:42:51;-1.70;99.90
9762;DHT22;4920;49.594;11.022;2022-12-10T02:45:26;-1.70;99.90
9762;DHT22;4920;49.594;11.022;2022-12-10T02:47:59;-1.70;99.90
9762;DHT22;4920;49.594;11.022;2022-12-10T02:50:36;-1.70;99.90
9762;DHT22;4920;49.594;11.022;2022-12-10T02:53:05;-1.60;99.90
9762;DHT22;4920;49.594;11.022;2022-12-10T02:55:46;-1.60;99.90
9762;DHT22;4920;49.594;11.022;2022-12-10T02:58:28;-1.60;99.90
9762;DHT22;4920;49.594;11.022;2022-12-10T03:01:06;-1.50;99.90
9762;DHT22;4920;49.594;11.022;2022-12-10T03:03:42;-1.50;99.90
9762;DHT22;4920;49.594;11.022;2022-12-10T03:06:19;-1.50;99.90
9762;DHT22;4920;49.594;11.022;2022-12-10T03:08:52;-1.50;99.90
9762;DHT22;4920;49.594;11.022;2022-12-10T03:11:25;-1.50;99.90
9762;DHT22;4920;49.594;11.022;2022-12-10T03:13:58;-1.50;99.90
9762;DHT22;4920;49.594;11.022;2022-12-10T03:16:34;-1.50;99.90
9762;DHT22;4920;49.594;11.022;2022-12-10T03:19:08;-1.50;99.90
9762;DHT22;4920;49.594;11.022;2022-12-10T03:21:41;-1.40;99.90
9762;DHT22;4920;49.594;11.022;2022-12-10T03:24:11;-1.40;99.90
9762;DHT22;4920;49.594;11.022;2022-12-10T03:26:40;-1.40;99.90
9762;DHT22;4920;49.594;11.022;2022-12-10T03:29:14;-1.40;99.90
9762;DHT22;4920;49.594;11.022;2022-12-10T03:31:47;-1.40;99.90
9762;DHT22;4920;49.594;11.022;2022-12-10T03:34:16;-1.40;99.90
9762;DHT22;4920;49.594;11.022;2022-12-10T03:36:45;-1.40;99.90
9762;DHT22;4920;49.594;11.022;2022-12-10T03:39:15;-1.40;99.90
9762;DHT22;4920;49.594;11.022;2022-12-10T03:41:44;-1.40;99.90
9762;DHT22;4920;49.594;11.022;2022-12-10T03:44:13;-1.50;99.90
9762;DHT22;4920;49.594;11.022;2022-12-10T03:46:56;-1.50;99.90
9762;DHT22;4920;49.594;11.022;2022-12-10T03:49:24;-1.60;99.90
9762;DHT22;4920;49.594;11.022;2022-12-10T03:51:53;-1.60;99.90
9762;DHT22;4920;49.594;11.022;2022-12-10T03:54:22;-1.70;99.90
9762;DHT22;4920;49.594;11.022;2022-12-10T03:56:51;-1.70;99.90
9762;DHT22;4920;49.594;11.022;2022-12-10T03:59:20;-1.70;99.90
9762;DHT22;4920;49.594;11.022;2022-12-10T04:01:49;-1.70;99.90
9762;DHT22;4920;49.594;11.022;2022-12-10T04:04:19;-1.70;99.90
9762;DHT22;4920;49.594;11.022;2022-12-10T04:06:48;-1.70;99.90
9762;DHT22;4920;49.594;11.022;2022-12-10T04:09:17;-1.80;99.90
9762;DHT22;4920;49.594;11.022;2022-12-10T04:11:46;-1.80;99.90
9762;DHT22;4920;49.594;11.022;2022-12-10T04:14:15;-1.70;99.90
9762;DHT22;4920;49.594;11.022;2022-12-10T04:17:06;-1.80;99.90
9762;DHT22;4920;49.594;11.022;2022-12-10T04:19:37;-1.70;99.90
9762;DHT22;4920;49.594;11.022;2022-12-10T04:22:05;-1.70;99.90
9762;DHT22;4920;49.594;11.022;2022-12-10T04:24:51;-1.70;99.90
9762;DHT22;4920;49.594;11.022;2022-12-10T04:27:39;-1.70;99.90
9762;DHT22;4920;49.594;11.022;2022-12-10T04:30:11;-1.70;99.90
9762;DHT22;4920;49.594;11.022;2022-12-10T04:32:39;-1.70;99.90
9762;DHT22;4920;49.594;11.022;2022-12-10T04:35:10;-1.70;99.90
9762;DHT22;4920;49.594;11.022;2022-12-10T04:37:39;-1.70;99.90
9762;DHT22;4920;49.594;11.022;2022-12-10T04:40:08;-1.70;99.90
9762;DHT22;4920;49.594;11.022;2022-12-10T04:42:37;-1.70;99.90
9762;DHT22;4920;49.594;11.022;2022-12-10T04:45:07;-1.80;99.90
9762;DHT22;4920;49.594;11.022;2022-12-10T04:47:35;-1.80;99.90
9762;DHT22;4920;49.594;11.022;2022-12-10T04:50:05;-1.80;99.90
9762;DHT22;4920;49.594;11.022;2022-12-10T04:52:35;-1.80;99.90
9762;DHT22;4920;49.594;11.022;2022-12-10T04:55:05;-1.90;99.90
9762;DHT22;4920;49.594;11.022;2022-12-10T04:57:33;-1.90;99.90
9762;DHT22;4920;49.594;11.022;2022-12-10T05:00:03;-1.90;99.90
9762;DHT22;4920;49.594;11.022;2022-12-10T05:02:32;-2.00;99.90
9762;DHT22;4920;49.594;11.022;2022-12-10T05:05:00;-2.10;99.90
9762;DHT22;4920;49.594;11.022;2022-12-10T05:07:29;-2.10;99.90
9762;DHT22;4920;49.594;11.022;2022-12-10T05:09:59;-2.10;99.90
9762;DHT22;4920;49.594;11.022;2022-12-10T05:12:28;-2.10;99.90
9762;DHT22;4920;49.594;11.022;2022-12-10T05:14:57;-2.10;99.90
9762;DHT22;4920;49.594;11.022;2022-12-10T05:17:25;-2.20;99.90
9762;DHT22;4920;49.594;11.022;2022-12-10T05:19:56;-2.30;99.90
9762;DHT22;4920;49.594;11.022;2022-12-10T05:22:25;-2.30;99.90
9762;DHT22;4920;49.594;11.022;2022-12-10T05:25:12;-2.30;99.90
9762;DHT22;4920;49.594;11.022;2022-12-10T05:27:41;-2.40;99.90
9762;DHT22;4920;49.594;11.022;2022-12-10T05:30:10;-2.40;99.90
9762;DHT22;4920;49.594;11.022;2022-12-10T05:32:40;-2.50;99.90
9762;DHT22;4920;49.594;11.022;2022-12-10T05:35:09;-2.60;99.90
9762;DHT22;4920;49.594;11.022;2022-12-10T05:37:37;-2.60;99.90
9762;DHT22;4920;49.594;11.022;2022-12-10T05:40:08;-2.60;99.90
9762;DHT22;4920;49.594;11.022;2022-12-10T05:42:38;-2.60;99.90
9762;DHT22;4920;49.594;11.022;2022-12-10T05:45:08;-2.60;99.90
9762;DHT22;4920;49.594;11.022;2022-12-10T05:47:37;-2.70;99.90
9762;DHT22;4920;49.594;11.022;2022-12-10T05:50:06;-2.70;99.90
9762;DHT22;4920;49.594;11.022;2022-12-10T05:52:35;-2.80;99.90
9762;DHT22;4920;49.594;11.022;2022-12-10T05:55:04;-2.80;99.90
9762;DHT22;4920;49.594;11.022;2022-12-10T05:57:33;-2.80;99.90
9762;DHT22;4920;49.594;11.022;2022-12-10T06:00:04;-2.90;99.90
9762;DHT22;4920;49.594;11.022;2022-12-10T06:02:38;-2.90;99.90
9762;DHT22;4920;49.594;11.022;2022-12-10T06:05:07;-3.00;99.90
9762;DHT22;4920;49.594;11.022;2022-12-10T06:07:36;-3.00;99.90
9762;DHT22;4920;49.594;11.022;2022-12-10T06:10:07;-3.00;99.90
9762;DHT22;4920;49.594;11.022;2022-12-10T06:12:36;-3.00;99.90
9762;DHT22;4920;49.594;11.022;2022-12-10T06:15:07;-3.00;99.90
9762;DHT22;4920;49.594;11.022;2022-12-10T06:17:36;-3.00;99.90
9762;DHT22;4920;49.594;11.022;2022-12-10T06:20:06;-3.00;99.90
9762;DHT22;4920;49.594;11.022;2022-12-10T06:22:38;-3.10;99.90
9762;DHT22;4920;49.594;11.022;2022-12-10T06:25:07;-3.20;99.90
9762;DHT22;4920;49.594;11.022;2022-12-10T06:27:36;-3.20;99.90
9762;DHT22;4920;49.594;11.022;2022-12-10T06:30:08;-3.20;99.90
9762;DHT22;4920;49.594;11.022;2022-12-10T06:32:37;-3.30;99.90
9762;DHT22;4920;49.594;11.022;2022-12-10T06:35:07;-3.20;99.90
9762;DHT22;4920;49.594;11.022;2022-12-10T06:37:36;-3.20;99.90
9762;DHT22;4920;49.594;11.022;2022-12-10T06:40:05;-3.10;99.90
9762;DHT22;4920;49.594;11.022;2022-12-10T06:42:34;-3.00;99.90
9762;DHT22;4920;49.594;11.022;2022-12-10T06:45:06;-3.00;99.90
9762;DHT22;4920;49.594;11.022;2022-12-10T06:47:35;-2.90;99.90
9762;DHT22;4920;49.594;11.022;2022-12-10T06:50:09;-2.80;99.90
9762;DHT22;4920;49.594;11.022;2022-12-10T06:52:39;-2.80;99.90
9762;DHT22;4920;49.594;11.022;2022-12-10T06:55:08;-2.70;99.90
9762;DHT22;4920;49.594;11.022;2022-12-10T06:57:37;-2.70;99.90
9762;DHT22;4920;49.594;11.022;2022-12-10T07:00:08;-2.60;99.90
9762;DHT22;4920;49.594;11.022;2022-12-10T07:02:37;-2.50;99.90
9762;DHT22;4920;49.594;11.022;2022-12-10T07:05:07;-2.50;99.90
9762;DHT22;4920;49.594;11.022;2022-12-10T07:07:36;-2.40;99.90
9762;DHT22;4920;49.594;11.022;2022-12-10T07:10:06;-2.40;99.90
9762;DHT22;4920;49.594;11.022;2022-12-10T07:12:35;-2.40;99.90
9762;DHT22;4920;49.594;11.022;2022-12-10T07:15:07;-2.30;99.90
9762;DHT22;4920;49.594;11.022;2022-12-10T07:17:36;-2.30;99.90
9762;DHT22;4920;49.594;11.022;2022-12-10T07:20:07;-2.20;99.90
9762;DHT22;4920;49.594;11.022;2022-12-10T07:22:37;-2.20;99.90
9762;DHT22;4920;49.594;11.022;2022-12-10T07:25:06;-2.20;99.90
9762;DHT22;4920;49.594;11.022;2022-12-10T07:27:35;-2.20;99.90
9762;DHT22;4920;49.594;11.022;2022-12-10T07:30:07;-2.20;99.90
9762;DHT22;4920;49.594;11.022;2022-12-10T07:32:37;-2.20;99.90
9762;DHT22;4920;49.594;11.022;2022-12-10T07:35:06;-2.30;99.90
9762;DHT22;4920;49.594;11.022;2022-12-10T07:37:35;-2.30;99.90
9762;DHT22;4920;49.594;11.022;2022-12-10T07:40:04;-2.30;99.90
9762;DHT22;4920;49.594;11.022;2022-12-10T07:42:34;-2.30;99.90
9762;DHT22;4920;49.594;11.022;2022-12-10T07:45:03;-2.30;99.90
9762;DHT22;4920;49.594;11.022;2022-12-10T07:47:37;-2.30;99.90
9762;DHT22;4920;49.594;11.022;2022-12-10T07:50:07;-2.30;99.90
9762;DHT22;4920;49.594;11.022;2022-12-10T07:52:36;-2.20;99.90
9762;DHT22;4920;49.594;11.022;2022-12-10T07:55:05;-2.30;99.90
9762;DHT22;4920;49.594;11.022;2022-12-10T07:57:34;-2.30;99.90
9762;DHT22;4920;49.594;11.022;2022-12-10T08:00:03;-2.30;99.90
9762;DHT22;4920;49.594;11.022;2022-12-10T08:02:39;-2.40;99.90
9762;DHT22;4920;49.594;11.022;2022-12-10T08:05:08;-2.30;99.90
9762;DHT22;4920;49.594;11.022;2022-12-10T08:07:38;-2.30;99.90
9762;DHT22;4920;49.594;11.022;2022-12-10T08:10:33;-2.10;99.90
9762;DHT22;4920;49.594;11.022;2022-12-10T08:13:02;-2.00;99.90
9762;DHT22;4920;49.594;11.022;2022-12-10T08:16:01;-1.90;99.90
9762;DHT22;4920;49.594;11.022;2022-12-10T08:18:34;-1.70;99.90
9762;DHT22;4920;49.594;11.022;2022-12-10T08:21:04;-1.60;99.90
9762;DHT22;4920;49.594;11.022;2022-12-10T08:23:33;-1.30;99.90
9762;DHT22;4920;49.594;11.022;2022-12-10T08:26:03;-1.10;99.90
9762;DHT22;4920;49.594;11.022;2022-12-10T08:28:34;-0.80;99.90
9762;DHT22;4920;49.594;11.022;2022-12-10T08:31:04;-0.60;99.90
9762;DHT22;4920;49.594;11.022;2022-12-10T08:33:35;-0.50;99.90
9762;DHT22;4920;49.594;11.022;2022-12-10T08:36:05;-0.40;99.90
9762;DHT22;4920;49.594;11.022;2022-12-10T08:38:35;-0.30;99.90
9762;DHT22;4920;49.594;11.022;2022-12-10T08:41:08;-0.30;99.90
9762;DHT22;4920;49.594;11.022;2022-12-10T08:43:38;-0.40;99.90
9762;DHT22;4920;49.594;11.022;2022-12-10T08:46:07;-0.40;99.90
9762;DHT22;4920;49.594;11.022;2022-12-10T08:48:38;-0.50;99.90
9762;DHT22;4920;49.594;11.022;2022-12-10T08:51:09;-0.50;99.90
9762;DHT22;4920;49.594;11.022;2022-12-10T08:53:39;-0.50;99.90
9762;DHT22;4920;49.594;11.022;2022-12-10T08:56:10;-0.50;99.90
9762;DHT22;4920;49.594;11.022;2022-12-10T08:58:42;-0.50;99.90
9762;DHT22;4920;49.594;11.022;2022-12-10T09:01:13;-0.50;99.90
9762;DHT22;4920;49.594;11.022;2022-12-10T09:03:44;-0.50;99.90
9762;DHT22;4920;49.594;11.022;2022-12-10T09:06:14;-0.30;99.90
9762;DHT22;4920;49.594;11.022;2022-12-10T09:08:43;-0.20;99.90
9762;DHT22;4920;49.594;11.022;2022-12-10T09:11:17;0.00;99.90
9762;DHT22;4920;49.594;11.022;2022-12-10T09:13:46;0.20;99.90
9762;DHT22;4920;49.594;11.022;2022-12-10T09:16:17;0.40;99.90
9762;DHT22;4920;49.594;11.022;2022-12-10T09:18:47;0.60;99.90
9762;DHT22;4920;49.594;11.022;2022-12-10T09:21:17;0.80;99.90
9762;DHT22;4920;49.594;11.022;2022-12-10T09:23:46;0.90;99.90
9762;DHT22;4920;49.594;11.022;2022-12-10T09:26:15;1.10;99.90
9762;DHT22;4920;49.594;11.022;2022-12-10T09:28:45;1.20;99.90
9762;DHT22;4920;49.594;11.022;2022-12-10T09:31:16;1.30;99.90
9762;DHT22;4920;49.594;11.022;2022-12-10T09:33:49;1.40;99.90
9762;DHT22;4920;49.594;11.022;2022-12-10T09:36:20;1.40;99.90
9762;DHT22;4920;49.594;11.022;2022-12-10T09:38:54;1.50;99.90
9762;DHT22;4920;49.594;11.022;2022-12-10T09:41:54;1.50;99.90
9762;DHT22;4920;49.594;11.022;2022-12-10T09:44:35;1.60;99.90
9762;DHT22;4920;49.594;11.022;2022-12-10T09:47:08;1.60;99.90
9762;DHT22;4920;49.594;11.022;2022-12-10T09:49:51;1.70;99.90
9762;DHT22;4920;49.594;11.022;2022-12-10T09:52:24;1.70;99.90
9762;DHT22;4920;49.594;11.022;2022-12-10T09:54:58;1.60;99.90
9762;DHT22;4920;49.594;11.022;2022-12-10T09:57:30;1.60;99.90
9762;DHT22;4920;49.594;11.022;2022-12-10T10:00:04;1.40;99.90
9762;DHT22;4920;49.594;11.022;2022-12-10T10:02:37;1.30;99.90
9762;DHT22;4920;49.594;11.022;2022-12-10T10:05:12;1.20;99.90
9762;DHT22;4920;49.594;11.022;2022-12-10T10:07:44;1.00;99.90
9762;DHT22;4920;49.594;11.022;2022-12-10T10:10:21;0.90;99.90
9762;DHT22;4920;49.594;11.022;2022-12-10T10:12:53;0.90;99.90
9762;DHT22;4920;49.594;11.022;2022-12-10T10:15:28;0.90;99.90
9762;DHT22;4920;49.594;11.022;2022-12-10T10:18:03;1.00;99.90
9762;DHT22;4920;49.594;11.022;2022-12-10T10:20:36;1.10;99.90
9762;DHT22;4920;49.594;11.022;2022-12-10T10:23:05;1.30;99.90
9762;DHT22;4920;49.594;11.022;2022-12-10T10:25:34;1.50;99.90
9762;DHT22;4920;49.594;11.022;2022-12-10T10:28:03;1.70;99.90
9762;DHT22;4920;49.594;11.022;2022-12-10T10:30:32;1.90;99.90
9762;DHT22;4920;49.594;11.022;2022-12-10T10:33:08;2.10;99.90
9762;DHT22;4920;49.594;11.022;2022-12-10T10:35:45;2.20;99.90
9762;DHT22;4920;49.594;11.022;2022-12-10T10:38:18;2.30;99.90
9762;DHT22;4920;49.594;11.022;2022-12-10T10:40:51;2.40;99.90
9762;DHT22;4920;49.594;11.022;2022-12-10T10:43:23;2.60;99.90
9762;DHT22;4920;49.594;11.022;2022-12-10T10:45:56;2.60;99.90
9762;DHT22;4920;49.594;11.022;2022-12-10T10:48:27;2.60;99.90
9762;DHT22;4920;49.594;11.022;2022-12-10T10:51:07;2.70;99.90
9762;DHT22;4920;49.594;11.022;2022-12-10T10:53:41;2.80;99.90
9762;DHT22;4920;49.594;11.022;2022-12-10T10:56:13;2.80;99.90
9762;DHT22;4920;49.594;11.022;2022-12-10T10:58:50;2.90;99.90
9762;DHT22;4920;49.594;11.022;2022-12-10T11:01:19;3.00;99.90
9762;DHT22;4920;49.594;11.022;2022-12-10T11:03:53;3.00;99.90
9762;DHT22;4920;49.594;11.022;2022-12-10T11:06:23;3.10;99.90
9762;DHT22;4920;49.594;11.022;2022-12-10T11:08:56;3.20;99.90
9762;DHT22;4920;49.594;11.022;2022-12-10T11:11:32;3.20;99.90
9762;DHT22;4920;49.594;11.022;2022-12-10T11:14:15;3.10;99.90
9762;DHT22;4920;49.594;11.022;2022-12-10T11:16:50;3.00;99.90
9762;DHT22;4920;49.594;11.022;2022-12-10T11:19:25;3.00;99.90
9762;DHT22;4920;49.594;11.022;2022-12-10T11:22:15;2.90;99.90
9762;DHT22;4920;49.594;11.022;2022-12-10T11:24:46;2.90;99.90
9762;DHT22;4920;49.594;11.022;2022-12-10T11:27:22;2.80;99.90
9762;DHT22;4920;49.594;11.022;2022-12-10T11:29:59;2.80;99.90
9762;DHT22;4920;49.594;11.022;2022-12-10T11:32:43;2.70;99.90
9762;DHT22;4920;49.594;11.022;2022-12-10T11:35:19;2.60;99.90
9762;DHT22;4920;49.594;11.022;2022-12-10T11:37:56;2.50;99.90
9762;DHT22;4920;49.594;11.022;2022-12-10T11:40:40;2.40;99.90
9762;DHT22;4920;49.594;11.022;2022-12-10T11:43:46;2.40;99.90
9762;DHT22;4920;49.594;11.022;2022-12-10T11:46:32;2.30;99.90
9762;DHT22;4920;49.594;11.022;2022-12-10T11:49:15;2.40;99.90
9762;DHT22;4920;49.594;11.022;2022-12-10T11:51:52;2.30;99.90
9762;DHT22;4920;49.594;11.022;2022-12-10T11:54:44;2.40;99.90
9762;DHT22;4920;49.594;11.022;2022-12-10T11:57:24;2.40;99.90
9762;DHT22;4920;49.594;11.022;2022-12-10T12:00:01;2.40;99.90
9762;DHT22;4920;49.594;11.022;2022-12-10T12:03:03;2.30;99.90
9762;DHT22;4920;49.594;11.022;2022-12-10T12:05:52;2.20;99.90
9762;DHT22;4920;49.594;11.022;2022-12-10T12:08:41;2.10;99.90
9762;DHT22;4920;49.594;11.022;2022-12-10T12:11:26;2.00;99.90
9762;DHT22;4920;49.594;11.022;2022-12-10T12:14:04;1.90;99.90
9762;DHT22;4920;49.594;11.022;2022-12-10T12:16:40;1.90;99.90
9762;DHT22;4920;49.594;11.022;2022-12-10T12:19:14;2.00;99.90
9762;DHT22;4920;49.594;11.022;2022-12-10T12:21:48;2.00;99.90
9762;DHT22;4920;49.594;11.022;2022-12-10T12:24:20;2.00;99.90
9762;DHT22;4920;49.594;11.022;2022-12-10T12:26:56;2.00;99.90
9762;DHT22;4920;49.594;11.022;2022-12-10T12:29:29;1.90;99.90
9762;DHT22;4920;49.594;11.022;2022-12-10T12:32:08;1.90;99.90
9762;DHT22;4920;49.594;11.022;2022-12-10T12:34:46;1.90;99.90
9762;DHT22;4920;49.594;11.022;2022-12-10T12:37:18;1.90;99.90
9762;DHT22;4920;49.594;11.022;2022-12-10T12:39:52;1.90;99.90
9762;DHT22;4920;49.594;11.022;2022-12-10T12:42:29;2.00;99.90
9762;DHT22;4920;49.594;11.022;2022-12-10T12:45:03;1.90;99.90
9762;DHT22;4920;49.594;11.022;2022-12-10T12:47:41;1.90;99.90
9762;DHT22;4920;49.594;11.022;2022-12-10T12:50:20;1.90;99.90
9762;DHT22;4920;49.594;11.022;2022-12-10T12:52:53;1.90;99.90
9762;DHT22;4920;49.594;11.022;2022-12-10T12:55:29;1.80;99.90
9762;DHT22;4920;49.594;11.022;2022-12-10T12:58:15;1.80;99.90
9762;DHT22;4920;49.594;11.022;2022-12-10T13:00:50;1.80;99.90
9762;DHT22;4920;49.594;11.022;2022-12-10T13:03:29;1.80;99.90
9762;DHT22;4920;49.594;11.022;2022-12-10T13:06:13;1.80;99.90
9762;DHT22;4920;49.594;11.022;2022-12-10T13:08:47;1.70;99.90
9762;DHT22;4920;49.594;11.022;2022-12-10T13:11:29;1.70;99.90
9762;DHT22;4920;49.594;11.022;2022-12-10T13:14:17;1.70;99.90
9762;DHT22;4920;49.594;11.022;2022-12-10T13:17:22;1.70;99.90
9762;DHT22;4920;49.594;11.022;2022-12-10T13:19:53;1.70;99.90
9762;DHT22;4920;49.594;11.022;2022-12-10T13:22:40;1.80;99.90
9762;DHT22;4920;49.594;11.022;2022-12-10T13:25:14;1.80;99.90
9762;DHT22;4920;49.594;11.022;2022-12-10T13:27:54;1.80;99.90
9762;DHT22;4920;49.594;11.022;2022-12-10T13:30:32;1.90;99.90
9762;DHT22;4920;49.594;11.022;2022-12-10T13:33:20;1.90;99.90
9762;DHT22;4920;49.594;11.022;2022-12-10T13:35:55;1.80;99.90
9762;DHT22;4920;49.594;11.022;2022-12-10T13:38:39;1.90;99.90
9762;DHT22;4920;49.594;11.022;2022-12-10T13:41:08;1.80;99.90
9762;DHT22;4920;49.594;11.022;2022-12-10T13:43:57;1.80;99.90
9762;DHT22;4920;49.594;11.022;2022-12-10T13:46:56;1.80;99.90
9762;DHT22;4920;49.594;11.022;2022-12-10T13:49:27;1.90;99.90
9762;DHT22;4920;49.594;11.022;2022-12-10T13:52:01;1.90;99.90
9762;DHT22;4920;49.594;11.022;2022-12-10T13:58:01;1.80;99.90
9762;DHT22;4920;49.594;11.022;2022-12-10T14:00:39;1.80;99.90
9762;DHT22;4920;49.594;11.022;2022-12-10T14:06:16;1.80;99.90
9762;DHT22;4920;49.594;11.022;2022-12-10T14:08:54;1.80;99.90
9762;DHT22;4920;49.594;11.022;2022-12-10T14:11:27;1.80;99.90
9762;DHT22;4920;49.594;11.022;2022-12-10T14:14:05;1.90;99.90
9762;DHT22;4920;49.594;11.022;2022-12-10T14:16:34;1.90;99.90
9762;DHT22;4920;49.594;11.022;2022-12-10T14:19:08;1.90;99.90
9762;DHT22;4920;49.594;11.022;2022-12-10T14:21:41;2.00;99.90
9762;DHT22;4920;49.594;11.022;2022-12-10T14:24:25;1.90;99.90
9762;DHT22;4920;49.594;11.022;2022-12-10T14:26:57;2.00;99.90
9762;DHT22;4920;49.594;11.022;2022-12-10T14:29:26;2.00;99.90
9762;DHT22;4920;49.594;11.022;2022-12-10T14:31:56;2.00;99.90
9762;DHT22;4920;49.594;11.022;2022-12-10T14:34:27;2.00;99.90
9762;DHT22;4920;49.594;11.022;2022-12-10T14:36:58;2.00;99.90
9762;DHT22;4920;49.594;11.022;2022-12-10T14:39:31;2.00;99.90
9762;DHT22;4920;49.594;11.022;2022-12-10T14:42:03;2.00;99.90
9762;DHT22;4920;49.594;11.022;2022-12-10T14:44:35;1.90;99.90
9762;DHT22;4920;49.594;11.022;2022-12-10T14:47:12;2.00;99.90
9762;DHT22;4920;49.594;11.022;2022-12-10T14:49:44;2.00;99.90
9762;DHT22;4920;49.594;11.022;2022-12-10T14:52:14;1.90;99.90
9762;DHT22;4920;49.594;11.022;2022-12-10T14:54:44;1.90;99.90
9762;DHT22;4920;49.594;11.022;2022-12-10T14:57:18;1.90;99.90
9762;DHT22;4920;49.594;11.022;2022-12-10T14:59:50;1.90;99.90
9762;DHT22;4920;49.594;11.022;2022-12-10T15:02:27;1.80;99.90
9762;DHT22;4920;49.594;11.022;2022-12-10T15:04:58;1.80;99.90
9762;DHT22;4920;49.594;11.022;2022-12-10T15:07:31;1.80;99.90
9762;DHT22;4920;49.594;11.022;2022-12-10T15:10:07;1.80;99.90
9762;DHT22;4920;49.594;11.022;2022-12-10T15:12:43;1.70;99.90
9762;DHT22;4920;49.594;11.022;2022-12-10T15:15:15;1.80;99.90
9762;DHT22;4920;49.594;11.022;2022-12-10T15:17:57;1.70;99.90
9762;DHT22;4920;49.594;11.022;2022-12-10T15:20:30;1.70;99.90
9762;DHT22;4920;49.594;11.022;2022-12-10T15:23:32;1.70;99.90
9762;DHT22;4920;49.594;11.022;2022-12-10T15:26:09;1.70;99.90
9762;DHT22;4920;49.594;11.022;2022-12-10T15:28:41;1.70;99.90
9762;DHT22;4920;49.594;11.022;2022-12-10T15:31:13;1.60;99.90
9762;DHT22;4920;49.594;11.022;2022-12-10T15:33:48;1.60;99.90
9762;DHT22;4920;49.594;11.022;2022-12-10T15:36:23;1.60;99.90
9762;DHT22;4920;49.594;11.022;2022-12-10T15:38:53;1.60;99.90
9762;DHT22;4920;49.594;11.022;2022-12-10T15:41:41;1.50;99.90
9762;DHT22;4920;49.594;11.022;2022-12-10T15:44:24;1.50;99.90
9762;DHT22;4920;49.594;11.022;2022-12-10T15:46:59;1.50;99.90
9762;DHT22;4920;49.594;11.022;2022-12-10T15:49:27;1.40;99.90
9762;DHT22;4920;49.594;11.022;2022-12-10T15:51:58;1.40;99.90
9762;DHT22;4920;49.594;11.022;2022-12-10T15:54:28;1.40;99.90
9762;DHT22;4920;49.594;11.022;2022-12-10T15:56:58;1.30;99.90
9762;DHT22;4920;49.594;11.022;2022-12-10T15:59:27;1.20;99.90
9762;DHT22;4920;49.594;11.022;2022-12-10T16:01:56;1.20;99.90
9762;DHT22;4920;49.594;11.022;2022-12-10T16:04:25;1.20;99.90
9762;DHT22;4920;49.594;11.022;2022-12-10T16:06:54;1.20;99.90
9762;DHT22;4920;49.594;11.022;2022-12-10T16:09:24;1.10;99.90
9762;DHT22;4920;49.594;11.022;2022-12-10T16:11:53;1.10;99.90
9762;DHT22;4920;49.594;11.022;2022-12-10T16:14:21;1.10;99.90
9762;DHT22;4920;49.594;11.022;2022-12-10T16:16:50;1.10;99.90
9762;DHT22;4920;49.594;11.022;2022-12-10T16:19:19;1.00;99.90
9762;DHT22;4920;49.594;11.022;2022-12-10T16:21:47;1.00;99.90
9762;DHT22;4920;49.594;11.022;2022-12-10T16:24:16;1.00;99.90
9762;DHT22;4920;49.594;11.022;2022-12-10T16:26:46;1.00;99.90
9762;DHT22;4920;49.594;11.022;2022-12-10T16:29:15;1.00;99.90
9762;DHT22;4920;49.594;11.022;2022-12-10T16:31:47;1.00;99.90
9762;DHT22;4920;49.594;11.022;2022-12-10T16:34:16;1.00;99.90
9762;DHT22;4920;49.594;11.022;2022-12-10T16:36:45;1.00;99.90
9762;DHT22;4920;49.594;11.022;2022-12-10T16:39:13;1.00;99.90